Archimede — IXZR — position and weather

sailwx.info

Track history (hours):
 
Tides and Currents Weather Stations Pressure Air Temp Water Temp Dewpoint Dewpoint Depression Visibility Wind Speed Wind Dir Waves Ship Positions

Archimede

Last reported at 2015-May-03 22:33 UTC. Time now 2015-May-03 23:58 UTC.
Position N 38°13' E 015°38'.

; draft 3.1 m.

Type: Passenger vessel. MMSI: 247054700.

Date/timePositionNaut miles runAvg speedWind from/ knotsBaromVisibWave heightAir tempDewpointWater temp
2015-May-03 22:33N 38°13' E 015°38'1 1.2
2015-May-03 21:26N 38°13' E 015°36'1 0.7
2015-May-03 19:33N 38°13' E 015°38'0 0.0
2015-May-03 16:33N 38°13' E 015°38'0 0.0
2015-May-03 15:20N 38°13' E 015°38'1 1.0
2015-May-03 14:07N 38°13' E 015°36'1 1.9
2015-May-03 13:29N 38°12' E 015°36'2 2.1
2015-May-03 12:33N 38°13' E 015°38'1 0.5
2015-May-03 11:25N 38°14' E 015°37'0 0.4
2015-May-03 10:07N 38°14' E 015°37'2 3.1
2015-May-03 09:25N 38°13' E 015°34'3 2.7
2015-May-03 08:23N 38°13' E 015°38'0 0.0
2015-May-02 18:04N 38°13' E 015°38'0 0.0
2015-May-02 15:22N 38°13' E 015°38'1 1.2
2015-May-02 14:10N 38°13' E 015°36'2 1.0
2015-May-02 12:33N 38°13' E 015°38'0 0.0
2015-May-02 11:22N 38°13' E 015°38'1 0.6
2015-May-02 10:06N 38°13' E 015°37'1 0.5
2015-May-02 08:33N 38°13' E 015°38'1 0.8
2015-May-02 07:28N 38°13' E 015°37'0 0.2
2015-May-02 06:07N 38°13' E 015°37'2 2.3
2015-May-02 05:25N 38°13' E 015°35'3 0.2
2015-May-01 16:33N 38°13' E 015°38'0 0.4
2015-May-01 15:24N 38°13' E 015°37'1 0.8
2015-May-01 14:10N 38°13' E 015°36'0 0.0
2015-May-01 10:07N 38°13' E 015°36'1 0.7
2015-May-01 08:20N 38°13' E 015°38'1 1.3
2015-May-01 07:28N 38°13' E 015°36'0 0.2
2015-May-01 06:07N 38°13' E 015°37'1 0.1
2015-Apr-30 16:33N 38°13' E 015°38'0 0.3
2015-Apr-30 15:27N 38°14' E 015°38'0 0.1
2015-Apr-30 12:33N 38°13' E 015°38'0 0.2
2015-Apr-30 11:25N 38°14' E 015°38'0 0.4
2015-Apr-30 10:06N 38°13' E 015°37'1 0.4
2015-Apr-30 08:29N 38°13' E 015°38'0 0.1
2015-Apr-30 07:21N 38°13' E 015°38'1 0.9
2015-Apr-30 06:18N 38°13' E 015°37'1 0.1
2015-Apr-29 16:31N 38°13' E 015°38'0 0.0
2015-Apr-29 15:17N 38°13' E 015°38'0 0.0
2015-Apr-29 12:25N 38°13' E 015°38'2 1.8
2015-Apr-29 11:29N 38°13' E 015°36'1 0.4
2015-Apr-29 09:31N 38°12' E 015°36'2 2.3
2015-Apr-29 08:33N 38°13' E 015°38'0 0.2
2015-Apr-29 07:23N 38°14' E 015°38'1 0.8
2015-Apr-29 06:07N 38°13' E 015°37'1 0.1
2015-Apr-28 16:33N 38°13' E 015°38'0 0.2
2015-Apr-28 15:23N 38°13' E 015°38'0 0.0
2015-Apr-28 14:03N 38°14' E 015°38'0 0.2
2015-Apr-28 12:34N 38°13' E 015°38'0 0.0
2015-Apr-28 08:33N 38°13' E 015°38'1 0.9
2015-Apr-28 07:27N 38°13' E 015°37'1 0.4
2015-Apr-28 06:08N 38°14' E 015°37'1 0.1
2015-Apr-27 16:20N 38°13' E 015°38'1 0.7
2015-Apr-27 15:25N 38°13' E 015°37'0 0.2
2015-Apr-27 14:04N 38°13' E 015°38'0 0.2
2015-Apr-27 12:33N 38°13' E 015°38'0 0.0
2015-Apr-27 11:19N 38°13' E 015°38'0 0.1
2015-Apr-27 08:33N 38°13' E 015°38'1 1.3
2015-Apr-27 07:31N 38°13' E 015°36'1 0.7
2015-Apr-27 06:05N 38°14' E 015°37'0 0.0
2015-Apr-26 18:07N 38°13' E 015°37'1 0.5
2015-Apr-26 16:33N 38°13' E 015°38'1 0.8
2015-Apr-26 15:27N 38°13' E 015°37'1 0.2
2015-Apr-26 11:23N 38°13' E 015°38'0 0.0
2015-Apr-26 08:33N 38°13' E 015°38'0 0.0
2015-Apr-26 07:22N 38°13' E 015°38'0 0.4
2015-Apr-26 06:03N 38°13' E 015°37'1 0.3
2015-Apr-26 04:34N 38°13' E 015°38'1 0.5
2015-Apr-26 03:24N 38°13' E 015°37'0 0.3
2015-Apr-26 02:29N 38°13' E 015°37'1 0.8
2015-Apr-26 01:29N 38°14' E 015°38'0 0.0
2015-Apr-26 00:24N 38°14' E 015°38'0 0.3
2015-Apr-25 23:14N 38°14' E 015°37'0 0.2
2015-Apr-25 20:33N 38°13' E 015°38'0 0.2
2015-Apr-25 19:23N 38°13' E 015°38'0 0.1
2015-Apr-25 16:21N 38°13' E 015°38'0 0.4
2015-Apr-25 15:26N 38°14' E 015°38'1 0.6
2015-Apr-25 14:10N 38°14' E 015°37'1 0.6
2015-Apr-25 12:33N 38°13' E 015°38'0 0.0
2015-Apr-25 11:22N 38°13' E 015°38'1 0.4
2015-Apr-25 10:07N 38°13' E 015°37'1 0.4
2015-Apr-25 08:33N 38°13' E 015°38'0 0.2
2015-Apr-25 07:22N 38°13' E 015°38'0 0.2
2015-Apr-25 06:05N 38°14' E 015°37'0 0.3
2015-Apr-25 04:21N 38°13' E 015°38'0 0.3
2015-Apr-25 03:25N 38°13' E 015°38'0 0.2
2015-Apr-25 02:11N 38°14' E 015°38'1 0.5
2015-Apr-25 01:03N 38°13' E 015°37'0 0.2
2015-Apr-24 22:32N 38°13' E 015°37'1 0.5
2015-Apr-24 20:33N 38°13' E 015°38'0 0.2
2015-Apr-24 19:23N 38°14' E 015°38'0 0.3
2015-Apr-24 18:05N 38°14' E 015°37'1 0.3
2015-Apr-24 16:17N 38°13' E 015°37'1 1.2
2015-Apr-24 15:29N 38°13' E 015°36'1 0.6
2015-Apr-24 14:04N 38°13' E 015°37'1 0.4
2015-Apr-24 12:22N 38°13' E 015°38'0 0.2
2015-Apr-24 11:23N 38°13' E 015°38'0 0.3
2015-Apr-24 10:04N 38°13' E 015°37'1 0.4
2015-Apr-24 08:33N 38°13' E 015°38'1 1.1
2015-Apr-24 07:28N 38°14' E 015°36'0 0.3
2015-Apr-24 06:04N 38°14' E 015°37'  
Track history (hours):
 
Tides and Currents Weather Stations Pressure Air Temp Water Temp Dewpoint Dewpoint Depression Visibility Wind Speed Wind Dir Waves Ship Positions

Archimede

Last reported at 2015-May-03 22:33 UTC. Time now 2015-May-03 23:58 UTC.
Position N 38°13' E 015°38'.

; draft 3.1 m.

Type: Passenger vessel. MMSI: 247054700.

Date/timePositionNaut miles runAvg speedWind from/ knotsBaromVisibWave heightAir tempDewpointWater temp
2015-May-03 22:33N 38°13' E 015°38'1 1.2
2015-May-03 21:26N 38°13' E 015°36'1 0.7
2015-May-03 19:33N 38°13' E 015°38'0 0.0
2015-May-03 16:33N 38°13' E 015°38'0 0.0
2015-May-03 15:20N 38°13' E 015°38'1 1.0
2015-May-03 14:07N 38°13' E 015°36'1 1.9
2015-May-03 13:29N 38°12' E 015°36'2 2.1
2015-May-03 12:33N 38°13' E 015°38'1 0.5
2015-May-03 11:25N 38°14' E 015°37'0 0.4
2015-May-03 10:07N 38°14' E 015°37'2 3.1
2015-May-03 09:25N 38°13' E 015°34'3 2.7
2015-May-03 08:23N 38°13' E 015°38'0 0.0
2015-May-02 18:04N 38°13' E 015°38'0 0.0
2015-May-02 15:22N 38°13' E 015°38'1 1.2
2015-May-02 14:10N 38°13' E 015°36'2 1.0
2015-May-02 12:33N 38°13' E 015°38'0 0.0
2015-May-02 11:22N 38°13' E 015°38'1 0.6
2015-May-02 10:06N 38°13' E 015°37'1 0.5
2015-May-02 08:33N 38°13' E 015°38'1 0.8
2015-May-02 07:28N 38°13' E 015°37'0 0.2
2015-May-02 06:07N 38°13' E 015°37'2 2.3
2015-May-02 05:25N 38°13' E 015°35'3 0.2
2015-May-01 16:33N 38°13' E 015°38'0 0.4
2015-May-01 15:24N 38°13' E 015°37'1 0.8
2015-May-01 14:10N 38°13' E 015°36'0 0.0
2015-May-01 10:07N 38°13' E 015°36'1 0.7
2015-May-01 08:20N 38°13' E 015°38'1 1.3
2015-May-01 07:28N 38°13' E 015°36'0 0.2
2015-May-01 06:07N 38°13' E 015°37'1 0.1
2015-Apr-30 16:33N 38°13' E 015°38'0 0.3
2015-Apr-30 15:27N 38°14' E 015°38'0 0.1
2015-Apr-30 12:33N 38°13' E 015°38'0 0.2
2015-Apr-30 11:25N 38°14' E 015°38'0 0.4
2015-Apr-30 10:06N 38°13' E 015°37'1 0.4
2015-Apr-30 08:29N 38°13' E 015°38'0 0.1
2015-Apr-30 07:21N 38°13' E 015°38'1 0.9
2015-Apr-30 06:18N 38°13' E 015°37'1 0.1
2015-Apr-29 16:31N 38°13' E 015°38'0 0.0
2015-Apr-29 15:17N 38°13' E 015°38'0 0.0
2015-Apr-29 12:25N 38°13' E 015°38'2 1.8
2015-Apr-29 11:29N 38°13' E 015°36'1 0.4
2015-Apr-29 09:31N 38°12' E 015°36'2 2.3
2015-Apr-29 08:33N 38°13' E 015°38'0 0.2
2015-Apr-29 07:23N 38°14' E 015°38'1 0.8
2015-Apr-29 06:07N 38°13' E 015°37'1 0.1
2015-Apr-28 16:33N 38°13' E 015°38'0 0.2
2015-Apr-28 15:23N 38°13' E 015°38'0 0.0
2015-Apr-28 14:03N 38°14' E 015°38'0 0.2
2015-Apr-28 12:34N 38°13' E 015°38'0 0.0
2015-Apr-28 08:33N 38°13' E 015°38'1 0.9
2015-Apr-28 07:27N 38°13' E 015°37'1 0.4
2015-Apr-28 06:08N 38°14' E 015°37'1 0.1
2015-Apr-27 16:20N 38°13' E 015°38'1 0.7
2015-Apr-27 15:25N 38°13' E 015°37'0 0.2
2015-Apr-27 14:04N 38°13' E 015°38'0 0.2
2015-Apr-27 12:33N 38°13' E 015°38'0 0.0
2015-Apr-27 11:19N 38°13' E 015°38'0 0.1
2015-Apr-27 08:33N 38°13' E 015°38'1 1.3
2015-Apr-27 07:31N 38°13' E 015°36'1 0.7
2015-Apr-27 06:05N 38°14' E 015°37'0 0.0
2015-Apr-26 18:07N 38°13' E 015°37'1 0.5
2015-Apr-26 16:33N 38°13' E 015°38'1 0.8
2015-Apr-26 15:27N 38°13' E 015°37'1 0.2
2015-Apr-26 11:23N 38°13' E 015°38'0 0.0
2015-Apr-26 08:33N 38°13' E 015°38'0 0.0
2015-Apr-26 07:22N 38°13' E 015°38'0 0.4
2015-Apr-26 06:03N 38°13' E 015°37'1 0.3
2015-Apr-26 04:34N 38°13' E 015°38'1 0.5
2015-Apr-26 03:24N 38°13' E 015°37'0 0.3
2015-Apr-26 02:29N 38°13' E 015°37'1 0.8
2015-Apr-26 01:29N 38°14' E 015°38'0 0.0
2015-Apr-26 00:24N 38°14' E 015°38'0 0.3
2015-Apr-25 23:14N 38°14' E 015°37'0 0.2
2015-Apr-25 20:33N 38°13' E 015°38'0 0.2
2015-Apr-25 19:23N 38°13' E 015°38'0 0.1
2015-Apr-25 16:21N 38°13' E 015°38'0 0.4
2015-Apr-25 15:26N 38°14' E 015°38'1 0.6
2015-Apr-25 14:10N 38°14' E 015°37'1 0.6
2015-Apr-25 12:33N 38°13' E 015°38'0 0.0
2015-Apr-25 11:22N 38°13' E 015°38'1 0.4
2015-Apr-25 10:07N 38°13' E 015°37'1 0.4
2015-Apr-25 08:33N 38°13' E 015°38'0 0.2
2015-Apr-25 07:22N 38°13' E 015°38'0 0.2
2015-Apr-25 06:05N 38°14' E 015°37'0 0.3
2015-Apr-25 04:21N 38°13' E 015°38'0 0.3
2015-Apr-25 03:25N 38°13' E 015°38'0 0.2
2015-Apr-25 02:11N 38°14' E 015°38'1 0.5
2015-Apr-25 01:03N 38°13' E 015°37'0 0.2
2015-Apr-24 22:32N 38°13' E 015°37'1 0.5
2015-Apr-24 20:33N 38°13' E 015°38'0 0.2
2015-Apr-24 19:23N 38°14' E 015°38'0 0.3
2015-Apr-24 18:05N 38°14' E 015°37'1 0.3
2015-Apr-24 16:17N 38°13' E 015°37'1 1.2
2015-Apr-24 15:29N 38°13' E 015°36'1 0.6
2015-Apr-24 14:04N 38°13' E 015°37'1 0.4
2015-Apr-24 12:22N 38°13' E 015°38'0 0.2
2015-Apr-24 11:23N 38°13' E 015°38'0 0.3
2015-Apr-24 10:04N 38°13' E 015°37'1 0.4
2015-Apr-24 08:33N 38°13' E 015°38'1 1.1
2015-Apr-24 07:28N 38°14' E 015°36'0 0.3
2015-Apr-24 06:04N 38°14' E 015°37'  

Dump ship's entire track history